Terminal Aerodrome Forecast
Issued by NWS Albany, NY

Home | Current Version | Previous Version | Text Only | Print | Product List | Glossary On
Versions: 1 2 3 4 5 6 7 8 9 10 11 12 13 14 15 16
165
FTUS41 KALY 201739
TAFPOU
TAF
KPOU 201739Z 2018/2118 29009G16KT P6SM VCSH SCT030 BKN045
     FM202200 31005KT P6SM SCT250
     FM211000 00000KT 6SM BR SKC
     FM211300 VRB04KT P6SM SKC=

USA.gov is the U.S. government's official web portal to all federal, state and local government web resources and services.